Time;durP1;ratioP1;P1;durP2;ratioP2;P2;SDS_P1;SDS_P2;PMS_P1;PMS_P2;Temp;Humidity;BMP_temperature;BMP_pressure;BME280_temperature;BME280_humidity;BME280_pressure;Samples;Min_cycle;Max_cycle;Signal;HPM_P1;HPM_P2
2021/11/02 00:02:01;;;;;;;;;11.75;11.00;;;;;;;;5065960;28;10697;-84
2021/11/02 00:04:30;;;;;;;;;16.25;14.25;;;;;;;;5084932;28;10726;-79
2021/11/02 00:06:58;;;;;;;;;11.75;11.50;;;;;;;;5083870;28;10846;-81
2021/11/02 00:09:31;;;;;;;;;11.25;11.25;;;;;;;;5065730;28;10625;-79
2021/11/02 00:12:00;;;;;;;;;14.00;9.75;;;;;;;;5065704;28;10668;-84
2021/11/02 00:14:29;;;;;;;;;9.50;9.50;;;;;;;;5085552;28;10684;-80
2021/11/02 00:16:59;;;;;;;;;9.50;7.00;;;;;;;;5084094;28;10538;-83
2021/11/02 00:19:28;;;;;;;;;11.75;10.50;;;;;;;;5083742;28;10390;-82
2021/11/02 00:22:06;;;;;;;;;12.50;10.25;;;;;;;;5084888;28;10491;-82
2021/11/02 00:24:50;;;;;;;;;11.25;11.25;;;;;;;;5065788;28;10563;-80
2021/11/02 00:27:17;;;;;;;;;14.25;12.25;;;;;;;;5085525;28;10463;-78
2021/11/02 00:29:45;;;;;;;;;10.00;10.00;;;;;;;;5091590;28;10436;-78
2021/11/02 00:32:12;;;;;;;;;11.00;11.00;;;;;;;;5081575;28;10537;-81
2021/11/02 00:34:39;;;;;;;;;12.25;12.25;;;;;;;;5083704;28;10538;-83
2021/11/02 00:37:08;;;;;;;;;15.50;13.00;;;;;;;;5082262;28;10723;-82
2021/11/02 00:39:36;;;;;;;;;13.00;13.00;;;;;;;;5066000;28;10747;-79
2021/11/02 00:42:04;;;;;;;;;15.75;15.75;;;;;;;;5082485;28;10661;-80
2021/11/02 00:44:31;;;;;;;;;11.00;11.00;;;;;;;;5084295;28;10605;-82
2021/11/02 00:46:59;;;;;;;;;14.75;12.75;;;;;;;;5081219;28;10665;-80
2021/11/02 00:49:26;;;;;;;;;8.25;8.25;;;;;;;;5074279;28;10767;-80
2021/11/02 00:51:54;;;;;;;;;15.75;14.00;;;;;;;;5082937;28;10815;-78
2021/11/02 00:54:23;;;;;;;;;14.00;13.25;;;;;;;;5081846;28;10714;-79
2021/11/02 00:56:50;;;;;;;;;19.75;15.75;;;;;;;;5082586;28;10809;-80
2021/11/02 00:59:18;;;;;;;;;14.25;14.25;;;;;;;;5063657;28;10805;-81
2021/11/02 01:01:45;;;;;;;;;13.25;13.25;;;;;;;;5096915;28;10798;-81
2021/11/02 01:04:12;;;;;;;;;15.00;15.00;;;;;;;;5081898;28;11878;-83
2021/11/02 01:06:40;;;;;;;;;17.00;15.25;;;;;;;;5065356;28;10783;-83
2021/11/02 01:09:09;;;;;;;;;1.50;1.00;;;;;;;;5082345;28;10909;-81
2021/11/02 01:11:38;;;;;;;;;16.00;14.00;;;;;;;;5083153;28;10846;-82
2021/11/02 01:14:05;;;;;;;;;11.75;11.75;;;;;;;;5066038;28;10705;-84
2021/11/02 01:16:34;;;;;;;;;20.25;15.50;;;;;;;;5081316;28;10722;-81
2021/11/02 01:19:01;;;;;;;;;15.00;15.00;;;;;;;;5084977;28;10767;-84
2021/11/02 01:21:29;;;;;;;;;14.00;12.00;;;;;;;;5060367;28;10789;-80
2021/11/02 01:23:56;;;;;;;;;12.50;10.00;;;;;;;;5082584;28;11278;-80
2021/11/02 01:26:24;;;;;;;;;14.75;14.25;;;;;;;;5082765;28;10650;-80
2021/11/02 01:28:53;;;;;;;;;10.25;10.25;;;;;;;;5082768;28;10730;-82
2021/11/02 01:31:20;;;;;;;;;11.25;8.00;;;;;;;;5083317;28;10574;-82
2021/11/02 01:33:48;;;;;;;;;11.00;11.00;;;;;;;;5085371;28;10608;-81
2021/11/02 01:36:16;;;;;;;;;4.00;2.50;;;;;;;;5080210;28;10569;-81
2021/11/02 01:38:45;;;;;;;;;6.25;6.25;;;;;;;;5081455;28;10585;-78
2021/11/02 01:41:15;;;;;;;;;11.50;11.50;;;;;;;;5083424;28;11245;-81
2021/11/02 01:43:43;;;;;;;;;10.25;10.25;;;;;;;;5074018;28;10394;-82
2021/11/02 01:46:22;;;;;;;;;10.50;10.50;;;;;;;;5097759;28;10477;-80
2021/11/02 01:48:50;;;;;;;;;20.00;14.25;;;;;;;;5065195;28;10607;-77
2021/11/02 01:51:19;;;;;;;;;10.75;8.25;;;;;;;;5080311;28;10488;-81
2021/11/02 01:53:46;;;;;;;;;9.25;9.25;;;;;;;;5082548;28;10477;-79
2021/11/02 01:56:14;;;;;;;;;12.75;10.25;;;;;;;;5081729;28;10428;-79
2021/11/02 01:58:44;;;;;;;;;10.75;10.75;;;;;;;;5084382;28;11326;-81
2021/11/02 02:01:17;;;;;;;;;12.75;12.75;;;;;;;;5066185;28;10464;-81
2021/11/02 02:03:54;;;;;;;;;9.50;9.50;;;;;;;;5085306;28;10600;-80
2021/11/02 02:06:26;;;;;;;;;11.00;11.00;;;;;;;;5087658;28;11058;-82
2021/11/02 02:09:04;;;;;;;;;11.25;10.25;;;;;;;;5085255;28;10569;-83
2021/11/02 02:11:41;;;;;;;;;14.50;11.00;;;;;;;;5084877;28;10662;-80
2021/11/02 02:14:14;;;;;;;;;11.75;11.75;;;;;;;;5084173;28;10579;-82
2021/11/02 02:16:45;;;;;;;;;10.00;10.00;;;;;;;;5084835;28;10525;-82
2021/11/02 02:19:34;;;;;;;;;7.75;7.75;;;;;;;;5085107;28;10619;-82
2021/11/02 02:22:13;;;;;;;;;13.00;13.00;;;;;;;;5071624;28;10441;-83
2021/11/02 02:24:51;;;;;;;;;11.25;9.50;;;;;;;;5085935;28;10627;-84
2021/11/02 02:27:27;;;;;;;;;7.00;7.00;;;;;;;;5084748;28;10560;-81
2021/11/02 02:29:56;;;;;;;;;12.25;10.50;;;;;;;;5085662;28;10649;-81
2021/11/02 02:32:26;;;;;;;;;9.50;9.50;;;;;;;;5085429;28;10598;-80
2021/11/02 02:34:59;;;;;;;;;7.00;7.00;;;;;;;;5075693;28;10502;-83
2021/11/02 02:37:28;;;;;;;;;8.50;7.50;;;;;;;;5069084;28;10623;-83
2021/11/02 02:39:56;;;;;;;;;8.75;8.75;;;;;;;;5085320;28;10557;-82
2021/11/02 02:42:25;;;;;;;;;10.50;10.50;;;;;;;;5089625;28;10610;-82
2021/11/02 02:44:53;;;;;;;;;6.00;6.00;;;;;;;;5085291;28;10573;-84
2021/11/02 02:47:22;;;;;;;;;7.00;7.00;;;;;;;;5084914;28;10527;-83
2021/11/02 02:49:49;;;;;;;;;10.50;8.50;;;;;;;;5084982;28;10455;-81
2021/11/02 02:52:17;;;;;;;;;8.50;6.75;;;;;;;;5089109;28;10539;-80
2021/11/02 02:54:46;;;;;;;;;6.50;6.50;;;;;;;;5068096;28;10476;-82
2021/11/02 02:57:15;;;;;;;;;8.00;6.25;;;;;;;;5084227;28;10484;-80
2021/11/02 02:59:43;;;;;;;;;7.25;7.25;;;;;;;;5084930;28;10474;-83
2021/11/02 03:02:12;;;;;;;;;6.50;5.00;;;;;;;;5083556;28;11027;-78
2021/11/02 03:04:42;;;;;;;;;5.50;4.50;;;;;;;;5085242;28;10327;-82
2021/11/02 03:07:09;;;;;;;;;5.50;5.50;;;;;;;;5086051;28;10307;-78
2021/11/02 03:09:37;;;;;;;;;5.50;5.00;;;;;;;;5083995;28;10464;-83
2021/11/02 03:12:07;;;;;;;;;6.50;6.50;;;;;;;;5067705;28;10456;-83
2021/11/02 03:14:48;;;;;;;;;6.00;6.00;;;;;;;;5084441;28;10473;-83
2021/11/02 03:17:16;;;;;;;;;6.00;6.00;;;;;;;;5087447;28;11528;-84
2021/11/02 03:51:01;;;;;;;;;6.00;6.00;;;;;;;;5093502;28;10459;-83
2021/11/02 03:56:29;;;;;;;;;5.50;5.00;;;;;;;;5084714;28;10377;-82
2021/11/02 03:59:16;;;;;;;;;3.00;3.00;;;;;;;;5080003;28;10427;-80
2021/11/02 04:01:56;;;;;;;;;3.50;3.50;;;;;;;;5080637;28;10286;-80
2021/11/02 05:47:31;;;;;;;;;2.50;1.75;;;;;;;;5087202;28;9999;-77
2021/11/02 05:50:08;;;;;;;;;1.00;1.00;;;;;;;;5090482;28;10737;-83
2021/11/02 05:58:10;;;;;;;;;4.75;2.00;;;;;;;;5085995;28;10033;-81
2021/11/02 06:00:48;;;;;;;;;1.50;1.50;;;;;;;;5063903;28;9933;-79
2021/11/02 06:03:28;;;;;;;;;0.75;0.75;;;;;;;;5085252;28;10025;-77
2021/11/02 06:06:04;;;;;;;;;1.00;1.00;;;;;;;;5084433;28;10069;-81
2021/11/02 06:09:00;;;;;;;;;2.75;2.00;;;;;;;;5084136;28;9912;-80
2021/11/02 06:28:22;;;;;;;;;5.25;1.00;;;;;;;;5079472;28;10019;-81
2021/11/02 06:31:01;;;;;;;;;2.00;2.00;;;;;;;;5084032;28;9935;-81
2021/11/02 06:33:37;;;;;;;;;1.00;1.00;;;;;;;;5087778;28;10029;-90
2021/11/02 06:39:28;;;;;;;;;0.25;0.25;;;;;;;;5072014;28;9931;-84
2021/11/02 06:47:52;;;;;;;;;0.00;0.00;;;;;;;;5070893;28;10164;-84
2021/11/02 06:50:44;;;;;;;;;1.00;1.00;;;;;;;;5085545;28;10095;-87
2021/11/02 07:18:59;;;;;;;;;1.25;0.00;;;;;;;;5067534;28;10160;-86
2021/11/02 07:24:17;;;;;;;;;0.00;0.00;;;;;;;;5027274;28;9977;-88
2021/11/02 07:26:53;;;;;;;;;0.00;0.00;;;;;;;;5068963;28;9947;-87
2021/11/02 07:29:49;;;;;;;;;1.00;1.00;;;;;;;;5083282;28;9909;-89
2021/11/02 08:45:44;;;;;;;;;0.50;0.50;;;;;;;;5038947;28;10012;-82
2021/11/02 08:48:12;;;;;;;;;1.50;1.00;;;;;;;;5028002;28;10128;-80
2021/11/02 08:50:41;;;;;;;;;0.00;0.00;;;;;;;;5080381;28;10171;-79
2021/11/02 08:53:12;;;;;;;;;0.00;0.00;;;;;;;;5079842;28;9851;-81
2021/11/02 08:55:42;;;;;;;;;0.50;0.50;;;;;;;;5080213;28;9939;-80
2021/11/02 08:58:09;;;;;;;;;0.00;0.00;;;;;;;;5045737;28;10692;-80
2021/11/02 09:00:38;;;;;;;;;2.00;1.50;;;;;;;;5081487;27;9863;-82
2021/11/02 09:03:16;;;;;;;;;1.00;1.00;;;;;;;;5082558;28;9753;-80
2021/11/02 09:05:44;;;;;;;;;1.00;1.00;;;;;;;;5081180;28;10050;-80
2021/11/02 09:08:13;;;;;;;;;2.00;2.00;;;;;;;;5085986;28;9972;-82
2021/11/02 09:10:42;;;;;;;;;6.00;1.50;;;;;;;;5080317;28;10029;-87
2021/11/02 09:13:11;;;;;;;;;1.00;1.00;;;;;;;;5083898;28;10704;-83
2021/11/02 09:15:39;;;;;;;;;1.00;1.00;;;;;;;;5084095;28;9857;-87
2021/11/02 09:18:08;;;;;;;;;3.00;2.00;;;;;;;;5085997;28;9823;-81
2021/11/02 09:20:36;;;;;;;;;1.50;1.50;;;;;;;;5088643;28;9957;-82
2021/11/02 09:23:04;;;;;;;;;1.50;1.50;;;;;;;;5084938;28;9879;-81
2021/11/02 09:25:34;;;;;;;;;1.50;1.50;;;;;;;;5086521;28;10676;-82
2021/11/02 09:28:02;;;;;;;;;3.25;2.00;;;;;;;;5084248;28;10025;-83
2021/11/02 09:30:30;;;;;;;;;2.00;1.75;;;;;;;;5086609;27;9941;-85
2021/11/02 09:32:58;;;;;;;;;1.00;1.00;;;;;;;;5086520;28;9989;-83
2021/11/02 09:35:27;;;;;;;;;1.25;1.25;;;;;;;;5085459;28;10017;-83
2021/11/02 09:38:05;;;;;;;;;2.25;0.25;;;;;;;;5085815;28;10013;-83
2021/11/02 09:41:26;;;;;;;;;1.25;1.25;;;;;;;;5085044;28;10962;-85
2021/11/02 09:44:38;;;;;;;;;0.75;0.75;;;;;;;;5067285;28;10122;-84
2021/11/02 09:47:32;;;;;;;;;2.75;2.75;;;;;;;;5084215;28;10263;-84
2021/11/02 09:50:19;;;;;;;;;1.75;1.25;;;;;;;;5084858;28;10083;-86
2021/11/02 09:53:20;;;;;;;;;0.25;0.25;;;;;;;;5066875;28;9868;-86
2021/11/02 09:56:12;;;;;;;;;0.25;0.25;;;;;;;;5086060;28;9882;-85
2021/11/02 09:59:10;;;;;;;;;0.00;0.00;;;;;;;;5085979;28;9648;-87
2021/11/02 10:01:45;;;;;;;;;0.00;0.00;;;;;;;;5086362;28;9505;-86
2021/11/02 10:04:48;;;;;;;;;1.00;0.00;;;;;;;;5088095;28;9143;-89
2021/11/02 10:07:32;;;;;;;;;0.00;0.00;;;;;;;;5082740;28;8964;-84
2021/11/02 10:10:01;;;;;;;;;0.00;0.00;;;;;;;;5086188;28;8956;-89
2021/11/02 10:12:42;;;;;;;;;0.00;0.00;;;;;;;;5084642;28;8928;-85
2021/11/02 10:15:33;;;;;;;;;0.00;0.00;;;;;;;;5084999;28;8866;-87
2021/11/02 10:18:28;;;;;;;;;0.00;0.00;;;;;;;;5085943;28;8951;-79
2021/11/02 10:21:18;;;;;;;;;0.00;0.00;;;;;;;;5083944;28;8886;-80
2021/11/02 10:24:24;;;;;;;;;0.00;0.00;;;;;;;;5082215;28;8884;-84
2021/11/02 10:27:06;;;;;;;;;0.00;0.00;;;;;;;;5066081;28;8945;-86
2021/11/02 10:30:07;;;;;;;;;0.00;0.00;;;;;;;;5083540;28;8969;-89
2021/11/02 10:32:38;;;;;;;;;0.00;0.00;;;;;;;;5067511;28;8835;-86
2021/11/02 10:35:11;;;;;;;;;0.00;0.00;;;;;;;;5068310;28;8846;-85
2021/11/02 10:37:43;;;;;;;;;0.00;0.00;;;;;;;;5083920;28;8866;-89
2021/11/02 10:40:26;;;;;;;;;0.00;0.00;;;;;;;;5098531;28;8838;-83
2021/11/02 10:43:22;;;;;;;;;0.00;0.00;;;;;;;;5083226;28;8854;-88
2021/11/02 10:45:56;;;;;;;;;0.00;0.00;;;;;;;;5066552;28;9715;-80
2021/11/02 10:48:30;;;;;;;;;0.00;0.00;;;;;;;;5083743;28;8890;-81
2021/11/02 10:51:04;;;;;;;;;0.00;0.00;;;;;;;;5064436;28;8965;-84
2021/11/02 10:53:36;;;;;;;;;1.25;0.00;;;;;;;;5085139;28;8866;-86
2021/11/02 10:56:11;;;;;;;;;1.00;1.00;;;;;;;;5084735;28;8931;-85
2021/11/02 10:58:43;;;;;;;;;0.00;0.00;;;;;;;;5083755;28;8889;-85
2021/11/02 11:01:13;;;;;;;;;0.00;0.00;;;;;;;;5063061;28;8837;-85
2021/11/02 11:03:42;;;;;;;;;0.00;0.00;;;;;;;;5082773;28;8993;-81
2021/11/02 11:06:11;;;;;;;;;0.00;0.00;;;;;;;;5086203;28;8878;-94
2021/11/02 11:08:39;;;;;;;;;0.00;0.00;;;;;;;;5079413;28;8909;-85
2021/11/02 11:11:08;;;;;;;;;0.00;0.00;;;;;;;;5069150;28;8862;-84
2021/11/02 11:13:39;;;;;;;;;0.00;0.00;;;;;;;;5081244;28;8861;-84
2021/11/02 11:16:13;;;;;;;;;0.00;0.00;;;;;;;;5083184;28;8919;-87
2021/11/02 11:18:53;;;;;;;;;0.00;0.00;;;;;;;;5087152;28;8864;-85
2021/11/02 11:21:22;;;;;;;;;0.00;0.00;;;;;;;;5088068;28;8874;-90
2021/11/02 11:23:59;;;;;;;;;0.00;0.00;;;;;;;;5086412;28;8870;-87
2021/11/02 11:26:27;;;;;;;;;0.00;0.00;;;;;;;;5085914;28;8890;-89
2021/11/02 11:28:57;;;;;;;;;0.00;0.00;;;;;;;;5090358;28;8991;-80
2021/11/02 11:31:26;;;;;;;;;2.00;0.00;;;;;;;;5086877;28;8791;-82
2021/11/02 11:34:01;;;;;;;;;0.00;0.00;;;;;;;;5080510;28;8862;-87
2021/11/02 11:36:30;;;;;;;;;0.25;0.25;;;;;;;;5083490;28;8854;-84
2021/11/02 11:39:00;;;;;;;;;1.75;1.75;;;;;;;;5099880;28;9673;-85
2021/11/02 11:41:28;;;;;;;;;3.00;3.00;;;;;;;;5084877;28;8896;-83
2021/11/02 11:43:57;;;;;;;;;3.00;3.00;;;;;;;;5062225;28;8856;-82
2021/11/02 11:46:28;;;;;;;;;9.25;9.25;;;;;;;;5080352;28;9013;-81
2021/11/02 11:48:57;;;;;;;;;5.67;5.67;;;;;;;;5082091;28;8838;-82
2021/11/02 11:51:26;;;;;;;;;2.50;2.50;;;;;;;;5084618;28;8974;-82
2021/11/02 11:53:59;;;;;;;;;2.50;2.50;;;;;;;;5085006;28;9606;-89
2021/11/02 11:56:33;;;;;;;;;4.50;4.50;;;;;;;;5081989;28;8866;-86
2021/11/02 11:59:01;;;;;;;;;6.75;6.75;;;;;;;;5066068;28;8976;-85
2021/11/02 12:01:38;;;;;;;;;6.00;6.00;;;;;;;;5080462;27;8843;-85
2021/11/02 12:04:10;;;;;;;;;8.50;8.50;;;;;;;;5084250;28;8913;-82
2021/11/02 12:06:46;;;;;;;;;10.50;10.50;;;;;;;;5081087;28;8854;-79
2021/11/02 12:09:18;;;;;;;;;5.75;5.75;;;;;;;;5080388;28;8897;-85
2021/11/02 12:11:45;;;;;;;;;1.00;1.00;;;;;;;;5084432;28;8866;-82
2021/11/02 12:14:19;;;;;;;;;3.50;3.50;;;;;;;;5081936;28;8854;-80
2021/11/02 12:16:48;;;;;;;;;0.25;0.25;;;;;;;;5082860;28;8857;-81
2021/11/02 12:19:24;;;;;;;;;0.00;0.00;;;;;;;;5082244;28;8902;-79
2021/11/02 12:22:05;;;;;;;;;0.00;0.00;;;;;;;;5082042;28;9627;-88
2021/11/02 12:24:35;;;;;;;;;0.00;0.00;;;;;;;;5083529;28;9012;-82
2021/11/02 12:27:13;;;;;;;;;0.00;0.00;;;;;;;;5081827;28;8993;-90
2021/11/02 12:29:41;;;;;;;;;0.00;0.00;;;;;;;;5082938;28;8884;-86
2021/11/02 12:32:12;;;;;;;;;0.00;0.00;;;;;;;;5082646;27;8811;-83
2021/11/02 12:34:46;;;;;;;;;0.00;0.00;;;;;;;;5080677;28;8890;-82
2021/11/02 12:37:15;;;;;;;;;0.00;0.00;;;;;;;;5083531;28;8838;-79
2021/11/02 12:39:43;;;;;;;;;0.00;0.00;;;;;;;;5080757;28;8862;-90
2021/11/02 12:42:11;;;;;;;;;0.00;0.00;;;;;;;;5086257;28;8952;-91
2021/11/02 12:44:40;;;;;;;;;0.00;0.00;;;;;;;;5084440;28;8988;-89
2021/11/02 12:47:12;;;;;;;;;0.00;0.00;;;;;;;;5068834;28;8892;-90
2021/11/02 12:49:42;;;;;;;;;0.00;0.00;;;;;;;;5089139;28;8874;-88
2021/11/02 12:52:12;;;;;;;;;0.00;0.00;;;;;;;;5088796;28;8846;-86
2021/11/02 12:54:41;;;;;;;;;0.00;0.00;;;;;;;;5066491;28;8865;-88
2021/11/02 12:57:10;;;;;;;;;0.00;0.00;;;;;;;;5084298;28;8878;-87
2021/11/02 12:59:47;;;;;;;;;0.00;0.00;;;;;;;;5083665;28;8865;-86
2021/11/02 13:02:19;;;;;;;;;0.00;0.00;;;;;;;;5066453;28;9635;-86
2021/11/02 13:04:51;;;;;;;;;0.00;0.00;;;;;;;;5083349;28;8943;-80
2021/11/02 13:07:19;;;;;;;;;0.00;0.00;;;;;;;;5081337;28;8969;-86
2021/11/02 13:09:51;;;;;;;;;0.00;0.00;;;;;;;;5083328;28;8884;-86
2021/11/02 13:12:24;;;;;;;;;0.00;0.00;;;;;;;;5083773;28;8830;-85
2021/11/02 13:14:53;;;;;;;;;0.00;0.00;;;;;;;;5064664;28;8885;-85
2021/11/02 13:17:29;;;;;;;;;0.00;0.00;;;;;;;;5082899;28;8853;-86
2021/11/02 13:19:58;;;;;;;;;0.00;0.00;;;;;;;;5082573;28;8893;-84
2021/11/02 13:22:28;;;;;;;;;0.00;0.00;;;;;;;;5083718;28;8854;-85
2021/11/02 13:25:01;;;;;;;;;0.25;0.00;;;;;;;;5078456;28;9628;-82
2021/11/02 13:27:39;;;;;;;;;0.00;0.00;;;;;;;;5083615;28;8880;-82
2021/11/02 13:30:30;;;;;;;;;0.00;0.00;;;;;;;;5082242;28;8935;-84
2021/11/02 13:33:01;;;;;;;;;0.00;0.00;;;;;;;;5080090;28;8892;-82
2021/11/02 13:35:45;;;;;;;;;0.25;0.00;;;;;;;;5083472;28;8858;-84
2021/11/02 13:38:33;;;;;;;;;0.00;0.00;;;;;;;;5084018;28;8846;-83
2021/11/02 13:41:04;;;;;;;;;0.00;0.00;;;;;;;;5082745;28;8888;-85
2021/11/02 13:43:37;;;;;;;;;0.00;0.00;;;;;;;;5084188;28;8846;-86
2021/11/02 13:46:06;;;;;;;;;0.00;0.00;;;;;;;;5064632;28;8892;-85
2021/11/02 13:48:35;;;;;;;;;0.25;0.00;;;;;;;;5083442;28;8939;-85
2021/11/02 13:51:04;;;;;;;;;0.00;0.00;;;;;;;;5083234;28;8921;-85
2021/11/02 13:53:34;;;;;;;;;0.00;0.00;;;;;;;;5084028;28;8866;-85
2021/11/02 13:56:02;;;;;;;;;0.00;0.00;;;;;;;;5085242;28;8857;-86
2021/11/02 13:58:30;;;;;;;;;0.00;0.00;;;;;;;;5068378;28;8870;-85
2021/11/02 14:00:57;;;;;;;;;0.00;0.00;;;;;;;;5087509;28;8793;-85
2021/11/02 14:03:28;;;;;;;;;0.00;0.00;;;;;;;;5086950;28;8878;-85
2021/11/02 14:05:58;;;;;;;;;0.00;0.00;;;;;;;;5087094;28;8866;-85
2021/11/02 14:08:27;;;;;;;;;0.00;0.00;;;;;;;;5068861;28;9569;-86
2021/11/02 14:10:56;;;;;;;;;0.00;0.00;;;;;;;;5086739;28;8873;-84
2021/11/02 14:13:40;;;;;;;;;0.00;0.00;;;;;;;;5087604;28;8845;-85
2021/11/02 14:16:08;;;;;;;;;0.00;0.00;;;;;;;;5084043;28;8956;-86
2021/11/02 14:18:36;;;;;;;;;0.00;0.00;;;;;;;;5087849;28;8912;-85
2021/11/02 14:21:05;;;;;;;;;0.00;0.00;;;;;;;;5085848;28;8877;-85
2021/11/02 14:23:39;;;;;;;;;0.00;0.00;;;;;;;;5067420;28;9802;-85
2021/11/02 14:26:23;;;;;;;;;0.00;0.00;;;;;;;;5069169;28;8900;-84
2021/11/02 14:28:53;;;;;;;;;1.00;0.00;;;;;;;;5083558;28;8906;-85
2021/11/02 14:31:44;;;;;;;;;0.00;0.00;;;;;;;;5083371;28;8809;-85
2021/11/02 14:34:14;;;;;;;;;0.00;0.00;;;;;;;;5083361;28;8830;-83
2021/11/02 14:36:44;;;;;;;;;0.00;0.00;;;;;;;;5085272;28;8851;-84
2021/11/02 14:39:12;;;;;;;;;0.00;0.00;;;;;;;;5063571;28;8846;-82
2021/11/02 14:41:47;;;;;;;;;0.00;0.00;;;;;;;;5098852;28;8862;-84
2021/11/02 14:44:27;;;;;;;;;0.00;0.00;;;;;;;;5066518;28;8901;-86
2021/11/02 14:46:56;;;;;;;;;0.00;0.00;;;;;;;;5085593;28;8904;-89
2021/11/02 14:49:41;;;;;;;;;0.00;0.00;;;;;;;;5085292;28;8892;-87
2021/11/02 14:52:10;;;;;;;;;0.00;0.00;;;;;;;;5085107;28;8868;-86
2021/11/02 14:54:40;;;;;;;;;0.00;0.00;;;;;;;;5085453;28;8987;-87
2021/11/02 14:57:52;;;;;;;;;0.00;0.00;;;;;;;;5086441;28;8924;-85
2021/11/02 15:00:37;;;;;;;;;1.50;0.00;;;;;;;;5083114;27;8882;-85
2021/11/02 15:03:17;;;;;;;;;0.00;0.00;;;;;;;;5084789;28;8858;-85
2021/11/02 15:05:44;;;;;;;;;1.00;1.00;;;;;;;;5085694;28;8909;-85
2021/11/02 15:08:14;;;;;;;;;3.00;1.00;;;;;;;;5084067;28;9008;-85
2021/11/02 15:10:45;;;;;;;;;0.75;0.75;;;;;;;;5085732;28;8900;-86
2021/11/02 15:17:09;;;;;;;;;1.25;1.25;;;;;;;;5082400;28;8818;-86
2021/11/02 15:19:39;;;;;;;;;0.00;0.00;;;;;;;;5078526;28;8980;-84
2021/11/02 15:22:07;;;;;;;;;0.00;0.00;;;;;;;;5082846;28;8862;-83
2021/11/02 15:24:38;;;;;;;;;0.50;0.00;;;;;;;;5084380;28;8866;-84
2021/11/02 15:27:08;;;;;;;;;0.00;0.00;;;;;;;;5085487;28;8865;-83
2021/11/02 15:29:38;;;;;;;;;0.00;0.00;;;;;;;;5083777;28;8869;-85
2021/11/02 15:32:08;;;;;;;;;0.00;0.00;;;;;;;;5083038;28;8829;-83
2021/11/02 15:34:41;;;;;;;;;0.50;0.00;;;;;;;;5083299;28;8866;-82
2021/11/02 15:37:10;;;;;;;;;0.00;0.00;;;;;;;;5070780;28;8850;-82
2021/11/02 15:39:39;;;;;;;;;0.00;0.00;;;;;;;;5083676;28;8861;-82
2021/11/02 15:42:22;;;;;;;;;0.00;0.00;;;;;;;;5081821;28;8874;-81
2021/11/02 15:44:51;;;;;;;;;1.00;1.00;;;;;;;;5082986;28;8858;-81
2021/11/02 15:47:19;;;;;;;;;0.75;0.75;;;;;;;;5065237;28;8886;-81
2021/11/02 15:49:54;;;;;;;;;0.75;0.75;;;;;;;;5083633;28;8870;-82
2021/11/02 15:52:21;;;;;;;;;1.25;1.25;;;;;;;;5081033;28;8870;-80
2021/11/02 15:54:50;;;;;;;;;2.25;1.00;;;;;;;;5083734;28;8882;-80
2021/11/02 15:57:17;;;;;;;;;1.75;1.75;;;;;;;;5097776;28;8856;-81
2021/11/02 15:59:45;;;;;;;;;0.00;0.00;;;;;;;;5082565;28;8862;-83
2021/11/02 16:02:14;;;;;;;;;2.00;2.00;;;;;;;;5082212;28;8876;-82
2021/11/02 16:04:42;;;;;;;;;1.25;1.00;;;;;;;;5063764;28;8874;-82
2021/11/02 16:07:11;;;;;;;;;2.00;2.00;;;;;;;;5082801;28;8963;-82
2021/11/02 16:09:54;;;;;;;;;2.00;2.00;;;;;;;;5081643;28;9621;-81
2021/11/02 16:12:32;;;;;;;;;2.00;2.00;;;;;;;;5085120;28;8869;-81
2021/11/02 16:15:10;;;;;;;;;3.25;2.00;;;;;;;;5068245;28;8896;-85
2021/11/02 16:17:43;;;;;;;;;2.00;2.00;;;;;;;;5082583;28;8983;-83
2021/11/02 16:20:19;;;;;;;;;3.25;2.75;;;;;;;;5083551;28;8876;-81
2021/11/02 16:22:49;;;;;;;;;2.50;2.50;;;;;;;;5083610;28;8877;-80
2021/11/02 16:25:18;;;;;;;;;3.00;2.25;;;;;;;;5083486;28;8869;-80
2021/11/02 16:27:58;;;;;;;;;2.00;2.00;;;;;;;;5079460;28;9794;-79
2021/11/02 16:30:29;;;;;;;;;2.67;2.00;;;;;;;;5081497;28;8794;-91
2021/11/02 16:32:57;;;;;;;;;2.00;2.00;;;;;;;;5082138;28;9090;-80
2021/11/02 16:35:38;;;;;;;;;6.33;3.00;;;;;;;;5079744;28;9063;-81
2021/11/02 16:38:19;;;;;;;;;2.67;2.67;;;;;;;;5072057;28;9035;-80
2021/11/02 16:40:50;;;;;;;;;3.67;3.67;;;;;;;;5079881;28;9886;-79
2021/11/02 16:43:25;;;;;;;;;4.33;3.00;;;;;;;;5081939;28;9260;-80
2021/11/02 16:45:53;;;;;;;;;3.00;3.00;;;;;;;;5062629;28;9321;-79
2021/11/02 16:48:20;;;;;;;;;4.00;4.00;;;;;;;;5079371;28;9416;-79
2021/11/02 16:50:54;;;;;;;;;2.00;2.00;;;;;;;;5082559;28;9406;-79
2021/11/02 16:53:26;;;;;;;;;2.50;1.00;;;;;;;;5081421;28;9480;-77
2021/11/02 16:55:55;;;;;;;;;3.25;3.25;;;;;;;;5082021;28;9527;-83
2021/11/02 16:58:34;;;;;;;;;2.00;2.00;;;;;;;;5080281;28;9797;-83
2021/11/02 17:01:22;;;;;;;;;4.00;2.25;;;;;;;;5077179;28;9689;-79
2021/11/02 17:03:49;;;;;;;;;3.00;3.00;;;;;;;;5080752;28;9806;-78
2021/11/02 17:06:20;;;;;;;;;3.25;3.25;;;;;;;;5081711;28;9772;-79
2021/11/02 17:08:52;;;;;;;;;5.25;5.25;;;;;;;;5080899;28;10050;-79
2021/11/02 17:11:27;;;;;;;;;8.75;8.75;;;;;;;;5080187;28;10117;-77
2021/11/02 17:13:55;;;;;;;;;4.25;4.25;;;;;;;;5063960;28;10303;-78
2021/11/02 17:16:26;;;;;;;;;4.75;3.00;;;;;;;;5082179;28;10930;-79
2021/11/02 17:18:56;;;;;;;;;5.00;5.00;;;;;;;;5073803;28;10206;-78
2021/11/02 17:21:25;;;;;;;;;3.00;3.00;;;;;;;;5083625;28;10274;-78
2021/11/02 17:23:54;;;;;;;;;5.50;4.25;;;;;;;;5077773;28;10363;-79
2021/11/02 17:26:22;;;;;;;;;3.00;3.00;;;;;;;;5083497;28;10257;-78
2021/11/02 17:28:53;;;;;;;;;3.75;3.75;;;;;;;;5066682;28;11179;-78
2021/11/02 17:31:22;;;;;;;;;3.00;2.25;;;;;;;;5079838;28;10393;-78
2021/11/02 17:33:50;;;;;;;;;8.75;4.75;;;;;;;;5086625;28;10508;-77
2021/11/02 17:36:21;;;;;;;;;7.25;7.00;;;;;;;;5084525;28;10464;-79
2021/11/02 17:38:49;;;;;;;;;9.00;9.00;;;;;;;;5084552;28;10550;-82
2021/11/02 17:41:16;;;;;;;;;6.75;6.75;;;;;;;;5084850;28;10669;-81
2021/11/02 17:43:46;;;;;;;;;14.50;12.25;;;;;;;;5084624;28;10654;-76
2021/11/02 17:46:16;;;;;;;;;11.00;11.00;;;;;;;;5085195;28;10973;-76
2021/11/02 17:48:44;;;;;;;;;17.00;15.25;;;;;;;;5086763;28;11701;-79
2021/11/02 17:51:11;;;;;;;;;14.00;11.50;;;;;;;;5086891;28;10864;-81
2021/11/02 17:53:39;;;;;;;;;16.00;16.00;;;;;;;;5084430;28;10919;-78
2021/11/02 17:56:09;;;;;;;;;20.75;17.75;;;;;;;;5086110;28;11033;-81
2021/11/02 17:58:39;;;;;;;;;14.00;12.50;;;;;;;;5081469;28;11028;-82
2021/11/02 18:01:09;;;;;;;;;21.00;20.25;;;;;;;;5086187;28;10872;-81
2021/11/02 18:03:40;;;;;;;;;18.25;13.25;;;;;;;;5085394;28;11035;-82
2021/11/02 18:06:09;;;;;;;;;16.25;15.00;;;;;;;;5085528;28;10790;-82
2021/11/02 18:08:38;;;;;;;;;18.50;16.00;;;;;;;;5086332;28;10874;-79
2021/11/02 18:11:07;;;;;;;;;19.50;16.00;;;;;;;;5084869;28;10881;-78
2021/11/02 18:13:36;;;;;;;;;14.75;13.25;;;;;;;;5085407;28;10969;-77
2021/11/02 18:16:06;;;;;;;;;12.50;10.25;;;;;;;;5067348;28;10950;-77
2021/11/02 18:18:37;;;;;;;;;12.25;8.00;;;;;;;;5085103;28;10716;-79
2021/11/02 18:21:09;;;;;;;;;11.00;8.50;;;;;;;;5085444;28;11548;-80
2021/11/02 18:23:39;;;;;;;;;10.00;10.00;;;;;;;;5083871;28;10896;-77
2021/11/02 18:26:06;;;;;;;;;11.50;10.50;;;;;;;;5084480;28;10624;-76
2021/11/02 18:28:34;;;;;;;;;9.50;8.00;;;;;;;;5063426;28;10808;-82
2021/11/02 18:31:02;;;;;;;;;10.50;10.50;;;;;;;;5063479;28;11508;-80
2021/11/02 18:33:30;;;;;;;;;9.75;7.25;;;;;;;;5082922;28;10828;-78
2021/11/02 18:35:57;;;;;;;;;10.75;8.00;;;;;;;;5066140;28;10748;-79
2021/11/02 18:38:27;;;;;;;;;19.50;19.50;;;;;;;;5065943;28;10815;-79
2021/11/02 18:40:56;;;;;;;;;25.25;21.00;;;;;;;;5083049;28;11163;-79
2021/11/02 18:43:24;;;;;;;;;22.00;19.00;;;;;;;;5065761;28;11212;-78
2021/11/02 18:45:55;;;;;;;;;20.75;20.50;;;;;;;;5065422;28;12038;-82
2021/11/02 18:48:22;;;;;;;;;18.00;18.00;;;;;;;;5082309;28;11130;-76
2021/11/02 18:50:50;;;;;;;;;18.00;17.25;;;;;;;;5063020;28;11064;-76
2021/11/02 18:53:18;;;;;;;;;26.00;20.50;;;;;;;;5082240;28;10944;-77
2021/11/02 18:55:48;;;;;;;;;27.00;23.25;;;;;;;;5084072;28;10775;-77
2021/11/02 18:58:15;;;;;;;;;20.50;20.50;;;;;;;;5082262;28;11056;-76
2021/11/02 19:00:43;;;;;;;;;19.75;17.25;;;;;;;;5084170;28;10997;-77
2021/11/02 19:03:13;;;;;;;;;16.75;15.00;;;;;;;;5095056;28;10908;-77
2021/11/02 19:05:42;;;;;;;;;18.25;13.75;;;;;;;;5083625;28;10727;-78
2021/11/02 19:08:10;;;;;;;;;12.25;9.00;;;;;;;;5083728;28;10710;-77
2021/11/02 19:10:37;;;;;;;;;10.25;8.50;;;;;;;;5083450;28;10704;-79
2021/11/02 19:13:06;;;;;;;;;6.00;6.00;;;;;;;;5081737;28;11658;-79
2021/11/02 19:15:34;;;;;;;;;7.00;7.00;;;;;;;;5080542;28;10623;-83
2021/11/02 19:18:01;;;;;;;;;10.00;8.50;;;;;;;;5083604;28;10705;-74
2021/11/02 19:20:28;;;;;;;;;8.00;8.00;;;;;;;;5083536;28;10749;-76
2021/11/02 19:22:56;;;;;;;;;8.25;7.25;;;;;;;;5084661;28;10758;-78
2021/11/02 19:25:23;;;;;;;;;10.25;7.75;;;;;;;;5084157;28;10703;-81
2021/11/02 19:27:50;;;;;;;;;6.50;6.50;;;;;;;;5085021;28;10741;-78
2021/11/02 19:30:19;;;;;;;;;8.00;8.00;;;;;;;;5081433;28;10925;-77
2021/11/02 19:32:47;;;;;;;;;9.50;9.50;;;;;;;;5085145;28;10888;-79
2021/11/02 19:35:14;;;;;;;;;9.25;9.00;;;;;;;;5084763;28;10894;-77
2021/11/02 19:37:42;;;;;;;;;15.00;8.25;;;;;;;;5084085;28;10797;-74
2021/11/02 19:40:10;;;;;;;;;9.75;9.75;;;;;;;;5085117;28;10891;-75
2021/11/02 19:42:37;;;;;;;;;6.00;6.00;;;;;;;;5082545;28;11128;-76
2021/11/02 19:45:05;;;;;;;;;12.00;11.00;;;;;;;;5066214;28;11041;-80
2021/11/02 19:47:34;;;;;;;;;9.50;9.50;;;;;;;;5083302;28;11076;-76
2021/11/02 19:50:02;;;;;;;;;11.50;11.50;;;;;;;;5098578;28;10886;-77